createdAt,value
2019-04-03T00:00:08.220Z,1.10
2019-04-03T00:02:37.015Z,1.00
2019-04-03T00:05:07.533Z,1.10
2019-04-03T00:07:36.221Z,1.37
2019-04-03T00:10:08.412Z,1.10
2019-04-03T00:12:37.301Z,1.17
2019-04-03T00:15:07.176Z,1.30
2019-04-03T00:17:35.720Z,1.40
2019-04-03T00:20:08.018Z,1.20
2019-04-03T00:22:37.973Z,1.23
2019-04-03T00:25:08.081Z,1.10
2019-04-03T00:27:36.566Z,1.30
2019-04-03T00:30:07.337Z,1.10
2019-04-03T00:32:36.570Z,1.37
2019-04-03T00:35:08.222Z,1.10
2019-04-03T00:37:36.710Z,1.20
2019-04-03T00:40:08.815Z,1.40
2019-04-03T00:42:37.304Z,1.40
2019-04-03T00:45:07.270Z,1.47
2019-04-03T00:47:35.841Z,1.40
2019-04-03T00:50:07.018Z,1.67
2019-04-03T00:52:36.074Z,1.50
2019-04-03T00:55:05.837Z,1.53
2019-04-03T00:57:34.384Z,1.50
2019-04-03T01:00:04.340Z,1.87
2019-04-03T01:02:33.061Z,2.00
2019-04-03T01:05:01.964Z,1.70
2019-04-03T01:07:30.545Z,1.70
2019-04-03T01:09:59.562Z,1.57
2019-04-03T01:12:30.496Z,1.60
2019-04-03T01:15:01.052Z,1.70
2019-04-03T01:17:28.844Z,1.97
2019-04-03T01:19:57.281Z,2.00
2019-04-03T01:22:25.725Z,1.80
2019-04-03T01:24:54.502Z,1.70
2019-04-03T01:27:22.998Z,2.17
2019-04-03T01:29:51.636Z,2.13
2019-04-03T01:32:20.653Z,2.40
2019-04-03T01:34:49.434Z,2.33
2019-04-03T01:37:19.161Z,2.07
2019-04-03T01:39:49.042Z,2.70
2019-04-03T01:42:18.193Z,2.30
2019-04-03T01:44:46.894Z,2.20
2019-04-03T01:47:15.356Z,2.27
2019-04-03T01:49:43.783Z,2.10
2019-04-03T01:52:12.551Z,2.33
2019-04-03T01:54:41.073Z,2.30
2019-04-03T01:57:09.505Z,2.20
2019-04-03T01:59:38.174Z,2.17
2019-04-03T02:02:08.516Z,2.20
2019-04-03T02:04:37.662Z,2.30
2019-04-03T02:07:06.242Z,2.53
2019-04-03T02:09:35.021Z,2.30
2019-04-03T02:12:03.483Z,2.43
2019-04-03T02:14:32.047Z,2.47
2019-04-03T02:17:00.720Z,2.53
2019-04-03T02:19:29.223Z,2.53
2019-04-03T02:21:58.590Z,2.10
2019-04-03T02:24:27.783Z,2.40
2019-04-03T02:26:56.225Z,2.47
2019-04-03T02:29:24.701Z,2.33
2019-04-03T02:31:53.501Z,2.03
2019-04-03T02:34:22.502Z,2.33
2019-04-03T02:36:51.158Z,2.00
2019-04-03T02:39:19.762Z,2.00
2019-04-03T02:41:48.446Z,1.90
2019-04-03T02:44:19.101Z,2.07
2019-04-03T02:46:47.297Z,2.10
2019-04-03T02:49:15.729Z,1.60
2019-04-03T02:51:45.732Z,1.90
2019-04-03T02:54:34.436Z,1.80
2019-04-03T02:57:01.473Z,1.50
2019-04-03T02:59:29.958Z,1.77
2019-04-03T03:01:58.655Z,1.80
2019-04-03T03:04:27.597Z,1.40
2019-04-03T03:06:56.373Z,1.57
2019-04-03T03:09:25.676Z,1.60
2019-04-03T03:11:56.577Z,1.37
2019-04-03T03:14:26.799Z,1.50
2019-04-03T03:16:55.940Z,1.70
2019-04-03T03:19:24.987Z,1.57
2019-04-03T03:21:56.602Z,1.80
2019-04-03T03:24:28.483Z,1.70
2019-04-03T03:26:57.422Z,1.73
2019-04-03T03:29:27.498Z,2.00
2019-04-03T03:32:09.041Z,1.50
2019-04-03T03:34:47.638Z,1.73
2019-04-03T03:37:01.741Z,1.40
2019-04-03T03:39:28.801Z,1.40
2019-04-03T03:41:58.589Z,1.67
2019-04-03T03:44:28.290Z,1.30
2019-04-03T03:47:01.483Z,1.47
2019-04-03T03:49:30.220Z,1.30
2019-04-03T03:52:02.732Z,1.50
2019-04-03T03:54:30.481Z,1.60
2019-04-03T03:57:04.333Z,1.30
2019-04-03T03:59:31.531Z,1.40
2019-04-03T04:02:03.266Z,1.43
2019-04-03T04:04:30.726Z,1.37
2019-04-03T04:07:02.232Z,1.50
2019-04-03T04:09:29.361Z,1.33
2019-04-03T04:11:58.232Z,1.60
2019-04-03T04:14:26.860Z,1.80
2019-04-03T04:16:57.128Z,1.97
2019-04-03T04:19:28.364Z,1.90
2019-04-03T04:21:56.328Z,1.77
2019-04-03T04:24:27.741Z,1.77
2019-04-03T04:26:56.576Z,1.67
2019-04-03T04:29:25.070Z,1.40
2019-04-03T04:31:53.623Z,1.53
2019-04-03T04:34:22.091Z,1.50
2019-04-03T04:36:50.507Z,1.60
2019-04-03T04:39:19.399Z,1.50
2019-04-03T04:41:47.980Z,1.60
2019-04-03T04:44:16.440Z,1.60
2019-04-03T04:46:45.036Z,1.80
2019-04-03T04:49:13.546Z,2.00
2019-04-03T04:51:42.450Z,1.70
2019-04-03T04:54:11.687Z,1.53
2019-04-03T04:56:40.783Z,2.00
2019-04-03T04:59:09.336Z,2.33
2019-04-03T05:01:37.777Z,1.70
2019-04-03T05:04:06.228Z,1.70
2019-04-03T05:06:34.657Z,1.93
2019-04-03T05:09:04.737Z,1.80
2019-04-03T05:11:33.185Z,1.97
2019-04-03T05:14:01.897Z,1.73
2019-04-03T05:16:30.342Z,1.90
2019-04-03T05:19:08.784Z,2.00
2019-04-03T05:21:28.939Z,2.10
2019-04-03T05:24:10.370Z,1.97
2019-04-03T05:26:27.846Z,1.83
2019-04-03T05:28:57.754Z,2.00
2019-04-03T05:31:26.588Z,2.10
2019-04-03T05:33:55.442Z,1.90
2019-04-03T05:36:23.932Z,1.80
2019-04-03T05:38:53.502Z,2.13
2019-04-03T05:41:22.579Z,2.00
2019-04-03T05:43:51.088Z,1.90
2019-04-03T05:46:19.947Z,2.40
2019-04-03T05:48:49.598Z,2.13
2019-04-03T05:51:18.074Z,1.90
2019-04-03T05:53:46.869Z,2.37
2019-04-03T05:56:15.679Z,2.50
2019-04-03T05:58:54.674Z,2.40
2019-04-03T06:01:14.415Z,2.30
2019-04-03T06:03:45.271Z,2.27
2019-04-03T06:06:14.584Z,2.77
2019-04-03T06:08:43.582Z,2.63
2019-04-03T06:11:12.173Z,2.33
2019-04-03T06:13:40.956Z,2.67
2019-04-03T06:16:09.417Z,3.37
2019-04-03T06:18:38.226Z,3.07
2019-04-03T06:21:06.673Z,3.20
2019-04-03T06:23:35.478Z,3.00
2019-04-03T06:26:04.453Z,2.93
2019-04-03T06:28:33.470Z,2.67
2019-04-03T06:31:02.002Z,3.00
2019-04-03T06:33:31.933Z,3.30
2019-04-03T06:36:00.672Z,2.83
2019-04-03T06:38:29.133Z,3.00
2019-04-03T06:40:58.937Z,3.30
2019-04-03T06:43:30.009Z,3.40
2019-04-03T06:45:58.300Z,3.33
2019-04-03T06:48:26.839Z,2.77
2019-04-03T06:50:55.933Z,2.70
2019-04-03T06:53:27.640Z,3.17
2019-04-03T06:55:55.433Z,3.10
2019-04-03T06:58:29.540Z,3.40
2019-04-03T07:00:55.532Z,3.10
2019-04-03T07:03:24.462Z,3.33
2019-04-03T07:06:01.799Z,3.13
2019-04-03T07:08:34.946Z,3.30
2019-04-03T07:11:05.437Z,3.50
2019-04-03T07:13:37.450Z,4.00
2019-04-03T07:16:17.142Z,3.93
2019-04-03T07:18:46.063Z,3.50
2019-04-03T07:21:15.181Z,3.60
2019-04-03T07:23:44.704Z,3.60
2019-04-03T07:26:13.210Z,3.33
2019-04-03T07:28:42.406Z,3.40
2019-04-03T07:31:11.294Z,3.90
2019-04-03T07:33:39.767Z,4.23
2019-04-03T07:36:10.212Z,4.17
2019-04-03T07:38:38.742Z,3.93
2019-04-03T07:41:07.424Z,3.53
2019-04-03T07:43:35.836Z,4.00
2019-04-03T07:46:06.268Z,3.40
2019-04-03T07:48:37.144Z,4.03
2019-04-03T07:51:05.917Z,3.70
2019-04-03T07:53:34.337Z,3.77
2019-04-03T07:56:02.884Z,4.10
2019-04-03T07:58:32.506Z,3.80
2019-04-03T08:01:01.486Z,3.93
2019-04-03T08:03:30.025Z,3.77
2019-04-03T08:05:59.162Z,3.70
2019-04-03T08:08:30.162Z,3.77
2019-04-03T08:11:01.665Z,3.13
2019-04-03T08:13:30.126Z,3.53
2019-04-03T08:16:04.925Z,3.73
2019-04-03T08:18:33.509Z,3.13
2019-04-03T08:21:02.297Z,2.87
2019-04-03T08:23:31.110Z,2.80
2019-04-03T08:25:59.546Z,2.33
2019-04-03T08:28:30.297Z,2.40
2019-04-03T08:30:59.034Z,4.30
2019-04-03T08:33:28.175Z,4.53
2019-04-03T08:35:56.869Z,4.20
2019-04-03T08:38:25.742Z,3.10
2019-04-03T08:40:54.852Z,2.47
2019-04-03T08:43:23.626Z,2.30
2019-04-03T08:45:52.244Z,2.60
2019-04-03T08:48:20.673Z,2.23
2019-04-03T08:50:49.116Z,2.37
2019-04-03T08:53:17.826Z,2.60
2019-04-03T08:55:46.912Z,2.80
2019-04-03T08:58:16.012Z,2.60
2019-04-03T09:00:44.569Z,2.40
2019-04-03T09:03:14.549Z,2.67
2019-04-03T09:05:43.559Z,2.60
2019-04-03T09:08:12.369Z,2.80
2019-04-03T09:10:41.074Z,2.50
2019-04-03T09:13:17.350Z,2.50
2019-04-03T09:15:39.780Z,2.40
2019-04-03T09:18:08.232Z,2.87
2019-04-03T09:20:36.859Z,2.50
2019-04-03T09:23:05.766Z,2.40
2019-04-03T09:25:34.779Z,2.20
2019-04-03T09:28:03.566Z,2.67
2019-04-03T09:30:32.078Z,2.87
2019-04-03T09:33:00.834Z,3.50
2019-04-03T09:35:32.062Z,3.83
2019-04-03T09:37:59.593Z,4.30
2019-04-03T09:40:28.073Z,4.47
2019-04-03T09:42:56.533Z,4.30
2019-04-03T09:45:26.083Z,3.60
2019-04-03T09:47:55.441Z,4.37
2019-04-03T09:50:26.246Z,3.60
2019-04-03T09:52:57.105Z,3.30
2019-04-03T09:55:27.348Z,3.93
2019-04-03T09:57:56.691Z,3.57
2019-04-03T10:00:26.552Z,3.47
2019-04-03T10:02:55.499Z,3.00
2019-04-03T10:05:24.299Z,3.07
2019-04-03T10:07:52.805Z,2.00
2019-04-03T10:10:25.159Z,1.50
2019-04-03T10:12:54.163Z,1.37
2019-04-03T10:15:23.842Z,1.10
2019-04-03T10:17:52.437Z,1.00
2019-04-03T10:20:21.622Z,1.00
2019-04-03T10:22:50.065Z,0.90
2019-04-03T10:25:18.569Z,0.80
2019-04-03T10:27:47.354Z,0.90
2019-04-03T10:30:16.585Z,3.67
2019-04-03T10:32:45.163Z,1.00
2019-04-03T10:35:15.222Z,1.83
2019-04-03T10:37:46.325Z,0.80
2019-04-03T10:40:15.560Z,0.70
2019-04-03T10:42:48.479Z,0.80
2019-04-03T10:45:17.662Z,0.80
2019-04-03T10:47:46.089Z,1.57
2019-04-03T10:50:15.295Z,1.60
2019-04-03T10:52:44.631Z,1.00
2019-04-03T10:55:14.759Z,0.80
2019-04-03T10:57:43.181Z,0.80
2019-04-03T11:00:14.683Z,0.83
2019-04-03T11:02:53.258Z,1.10
2019-04-03T11:05:23.242Z,0.80
2019-04-03T11:07:52.655Z,0.90
2019-04-03T11:10:23.322Z,0.80
2019-04-03T11:12:51.274Z,0.60
2019-04-03T11:15:20.421Z,0.90
2019-04-03T11:17:50.021Z,0.83
2019-04-03T11:20:18.981Z,0.87
2019-04-03T11:22:49.881Z,0.70
2019-04-03T11:25:18.372Z,0.80
2019-04-03T11:27:49.130Z,0.70
2019-04-03T11:30:23.514Z,0.87
2019-04-03T11:32:51.099Z,0.80
2019-04-03T11:35:21.789Z,0.70
2019-04-03T11:37:51.011Z,0.70
2019-04-03T11:40:19.742Z,0.70
2019-04-03T11:42:48.238Z,0.80
2019-04-03T11:45:18.108Z,0.70
2019-04-03T11:47:47.228Z,0.90
2019-04-03T11:50:18.214Z,0.93
2019-04-03T11:52:47.066Z,1.00
2019-04-03T11:55:16.150Z,1.37
2019-04-03T11:57:47.450Z,1.13
2019-04-03T12:00:20.926Z,1.43
2019-04-03T12:02:54.410Z,1.20
2019-04-03T12:05:23.932Z,1.13
2019-04-03T12:08:01.205Z,1.20
2019-04-03T12:10:37.678Z,1.20
2019-04-03T12:13:06.946Z,1.30
2019-04-03T12:15:35.957Z,1.30
2019-04-03T12:18:05.030Z,1.57
2019-04-03T12:20:34.161Z,1.20
2019-04-03T12:23:03.014Z,1.43
2019-04-03T12:25:34.276Z,0.70
2019-04-03T12:28:02.289Z,0.80
2019-04-03T12:30:30.784Z,0.87
2019-04-03T12:32:59.220Z,1.03
2019-04-03T12:35:31.961Z,1.00
2019-04-03T12:38:00.559Z,0.50
2019-04-03T12:40:31.742Z,0.50
2019-04-03T12:43:23.295Z,0.70
2019-04-03T12:45:51.851Z,0.50
2019-04-03T12:48:20.301Z,0.57
2019-04-03T12:50:49.020Z,0.50
2019-04-03T12:53:18.164Z,0.60
2019-04-03T12:55:47.745Z,0.60
2019-04-03T12:58:16.698Z,0.43
2019-04-03T13:00:46.200Z,0.57
2019-04-03T13:03:15.782Z,0.40
2019-04-03T13:05:48.498Z,0.57
2019-04-03T13:08:15.712Z,0.70
2019-04-03T13:10:47.575Z,0.40
2019-04-03T13:13:14.706Z,0.50
2019-04-03T13:15:43.231Z,0.57
2019-04-03T13:18:12.079Z,0.57
2019-04-03T13:20:40.983Z,0.60
2019-04-03T13:23:12.463Z,0.50
2019-04-03T13:25:39.956Z,0.70
2019-04-03T13:28:08.646Z,0.70
2019-04-03T13:30:37.071Z,0.70
2019-04-03T13:33:07.234Z,0.80
2019-04-03T13:35:35.784Z,0.60
2019-04-03T13:38:04.262Z,0.60
2019-04-03T13:40:33.110Z,0.60
2019-04-03T13:43:01.765Z,0.60
2019-04-03T13:45:31.477Z,0.60
2019-04-03T13:48:01.248Z,0.50
2019-04-03T13:50:36.995Z,0.63
2019-04-03T13:53:08.762Z,0.67
2019-04-03T13:55:40.017Z,0.90
2019-04-03T13:58:08.095Z,0.70
2019-04-03T14:00:36.639Z,1.00
2019-04-03T14:03:05.141Z,0.90
2019-04-03T14:05:33.834Z,0.90
2019-04-03T14:08:05.766Z,1.10
2019-04-03T14:10:32.916Z,1.00
2019-04-03T14:13:01.490Z,1.00
2019-04-03T14:15:29.973Z,1.10
2019-04-03T14:17:59.257Z,1.27
2019-04-03T14:20:29.254Z,1.27
2019-04-03T14:22:57.707Z,1.10
2019-04-03T14:25:31.379Z,1.13
2019-04-03T14:27:56.341Z,1.10
2019-04-03T14:30:24.786Z,0.93
2019-04-03T14:32:54.619Z,1.23
2019-04-03T14:35:45.355Z,0.83
2019-04-03T14:37:54.357Z,1.00
2019-04-03T14:40:23.102Z,0.80
2019-04-03T14:42:51.817Z,0.90
2019-04-03T14:45:21.060Z,0.80
2019-04-03T14:47:49.772Z,0.97
2019-04-03T14:50:18.510Z,0.97
2019-04-03T14:52:49.189Z,0.80
2019-04-03T14:55:20.717Z,0.87
2019-04-03T14:57:47.701Z,0.90
2019-04-03T15:00:26.781Z,1.20
2019-04-03T15:02:47.118Z,1.17
2019-04-03T15:05:15.558Z,1.10
2019-04-03T15:07:44.507Z,1.30
2019-04-03T15:10:15.391Z,1.23
2019-04-03T15:12:44.378Z,1.53
2019-04-03T15:15:13.935Z,1.70
2019-04-03T15:17:42.535Z,1.80
2019-04-03T15:20:12.372Z,1.60
2019-04-03T15:22:41.417Z,1.80
2019-04-03T15:25:10.833Z,2.00
2019-04-03T15:27:39.569Z,1.40
2019-04-03T15:30:11.030Z,1.70
2019-04-03T15:32:39.119Z,1.30
2019-04-03T15:35:09.071Z,1.17
2019-04-03T15:37:39.902Z,0.90
2019-04-03T15:40:08.387Z,0.80
2019-04-03T15:42:39.785Z,1.13
2019-04-03T15:45:08.838Z,1.00
2019-04-03T15:47:41.812Z,1.40
2019-04-03T15:50:11.031Z,0.97
2019-04-03T15:52:39.487Z,1.00
2019-04-03T15:55:11.793Z,1.10
2019-04-03T15:57:41.388Z,1.00
2019-04-03T16:00:15.795Z,1.03
2019-04-03T16:02:46.413Z,0.90
2019-04-03T16:05:15.572Z,0.90
2019-04-03T16:07:44.310Z,0.80
2019-04-03T16:10:18.544Z,0.73
2019-04-03T16:12:47.017Z,0.80
2019-04-03T16:15:15.605Z,0.90
2019-04-03T16:17:44.229Z,0.77
2019-04-03T16:20:16.004Z,1.23
2019-04-03T16:22:43.894Z,0.93
2019-04-03T16:25:16.240Z,0.70
2019-04-03T16:27:43.111Z,0.93
2019-04-03T16:30:15.936Z,0.80
2019-04-03T16:32:42.589Z,0.70
2019-04-03T16:35:14.212Z,0.83
2019-04-03T16:37:41.998Z,0.87
2019-04-03T16:40:12.624Z,0.80
2019-04-03T16:42:41.638Z,0.80
2019-04-03T16:45:12.021Z,0.60
2019-04-03T16:47:44.103Z,0.87
2019-04-03T16:50:12.369Z,0.90
2019-04-03T16:52:41.154Z,0.80
2019-04-03T16:55:11.921Z,0.70
2019-04-03T16:57:40.590Z,0.60
2019-04-03T17:00:10.368Z,0.70
2019-04-03T17:02:39.172Z,0.93
2019-04-03T17:05:24.572Z,0.80
2019-04-03T17:11:09.948Z,0.90
2019-04-03T17:13:39.349Z,0.90
2019-04-03T17:16:07.844Z,0.90
2019-04-03T17:18:36.927Z,0.70
2019-04-03T17:21:06.227Z,0.60
2019-04-03T17:23:35.014Z,0.90
2019-04-03T17:26:03.841Z,1.10
2019-04-03T17:28:32.659Z,0.80
2019-04-03T17:31:01.122Z,0.97
2019-04-03T17:33:29.554Z,1.20
2019-04-03T17:35:58.164Z,1.00
2019-04-03T17:38:26.754Z,1.00
2019-04-03T17:40:55.502Z,1.00
2019-04-03T17:43:23.941Z,0.97
2019-04-03T17:45:52.385Z,0.87
2019-04-03T17:48:20.830Z,1.17
2019-04-03T17:50:49.353Z,0.63
2019-04-03T17:53:17.813Z,0.90
2019-04-03T17:55:46.299Z,0.97
2019-04-03T17:58:16.525Z,0.80
2019-04-03T18:00:44.929Z,1.00
2019-04-03T18:03:13.372Z,0.70
2019-04-03T18:05:41.824Z,0.77
2019-04-03T18:09:04.023Z,0.80
2019-04-03T18:11:32.279Z,0.80
2019-04-03T18:14:00.703Z,0.70
2019-04-03T18:16:29.793Z,0.80
2019-04-03T18:18:59.314Z,0.70
2019-04-03T18:21:27.795Z,1.40
2019-04-03T18:23:56.217Z,0.80
2019-04-03T18:26:24.803Z,0.70
2019-04-03T18:28:53.362Z,0.60
2019-04-03T18:31:21.790Z,0.80
2019-04-03T18:33:50.210Z,0.70
2019-04-03T18:36:18.660Z,1.17
2019-04-03T18:38:47.077Z,0.60
2019-04-03T18:41:16.876Z,0.83
2019-04-03T18:43:45.954Z,1.20
2019-04-03T18:46:14.450Z,1.30
2019-04-03T18:48:52.913Z,1.23
2019-04-03T18:51:12.985Z,1.03
2019-04-03T18:53:41.399Z,0.93
2019-04-03T18:56:10.103Z,1.00
2019-04-03T18:58:38.888Z,0.90
2019-04-03T19:01:07.456Z,1.10
2019-04-03T19:03:36.382Z,1.00
2019-04-03T19:06:06.192Z,1.07
2019-04-03T19:08:34.723Z,1.27
2019-04-03T19:11:07.606Z,0.90
2019-04-03T19:13:37.304Z,1.07
2019-04-03T19:16:08.488Z,0.80
2019-04-03T19:18:36.686Z,0.90
2019-04-03T19:21:05.443Z,0.60
2019-04-03T19:23:33.898Z,0.80
2019-04-03T19:26:02.686Z,0.87
2019-04-03T19:28:31.166Z,0.80
2019-04-03T19:30:59.580Z,1.20
2019-04-03T19:33:33.635Z,4.10
2019-04-03T19:36:02.103Z,2.20
2019-04-03T19:38:30.620Z,3.30
2019-04-03T19:40:59.185Z,1.37
2019-04-03T19:43:27.865Z,0.90
2019-04-03T19:45:56.280Z,1.10
2019-04-03T19:48:30.384Z,1.10
2019-04-03T19:50:58.786Z,1.00
2019-04-03T19:53:27.283Z,1.00
2019-04-03T19:55:55.794Z,0.90
2019-04-03T19:58:24.212Z,0.90
2019-04-03T20:00:52.623Z,0.73
2019-04-03T20:03:21.046Z,0.70
2019-04-03T20:05:56.526Z,0.90
2019-04-03T20:08:25.296Z,0.80
2019-04-03T20:10:53.987Z,1.20
2019-04-03T20:13:22.397Z,1.00
2019-04-03T20:15:53.755Z,1.20
2019-04-03T20:18:21.259Z,1.10
2019-04-03T20:20:49.674Z,1.10
2019-04-03T20:23:18.099Z,0.80
2019-04-03T20:25:46.577Z,0.90
2019-04-03T20:28:15.840Z,1.10
2019-04-03T20:30:44.652Z,1.00
2019-04-03T20:33:13.070Z,0.90
2019-04-03T20:35:41.475Z,1.00
2019-04-03T20:38:09.904Z,0.97
2019-04-03T20:40:39.951Z,1.27
2019-04-03T20:43:11.094Z,1.37
2019-04-03T20:45:39.220Z,1.67
2019-04-03T20:48:07.938Z,1.97
2019-04-03T20:50:38.061Z,1.47
2019-04-03T20:53:06.501Z,1.50
2019-04-03T20:55:34.919Z,1.63
2019-04-03T20:58:05.766Z,2.27
2019-04-03T21:00:33.483Z,1.80
2019-04-03T21:03:01.898Z,1.70
2019-04-03T21:05:30.302Z,1.60
2019-04-03T21:07:58.720Z,1.80
2019-04-03T21:10:27.126Z,1.67
2019-04-03T21:12:55.542Z,1.70
2019-04-03T21:15:24.019Z,1.47
2019-04-03T21:17:52.434Z,1.67
2019-04-03T21:20:21.896Z,1.90
2019-04-03T21:22:51.281Z,1.87
2019-04-03T21:25:19.687Z,1.73
2019-04-03T21:27:48.114Z,1.70
2019-04-03T21:30:17.019Z,1.87
2019-04-03T21:32:45.436Z,1.80
2019-04-03T21:35:13.837Z,2.10
2019-04-03T21:37:49.234Z,1.83
2019-04-03T21:40:17.638Z,1.90
2019-04-03T21:42:46.061Z,1.83
2019-04-03T21:45:14.846Z,1.33
2019-04-03T21:47:43.637Z,1.90
2019-04-03T21:50:12.118Z,1.87
2019-04-03T21:52:40.526Z,2.13
2019-04-03T21:55:09.012Z,1.80
2019-04-03T21:57:38.415Z,1.60
2019-04-03T22:00:14.032Z,1.60
2019-04-03T22:02:45.000Z,1.57
2019-04-03T22:05:13.324Z,1.60
2019-04-03T22:07:41.726Z,1.60
2019-04-03T22:10:10.485Z,1.57
2019-04-03T22:12:38.895Z,2.20
2019-04-03T22:15:07.971Z,1.70
2019-04-03T22:17:36.649Z,2.00
2019-04-03T22:20:06.522Z,1.93
2019-04-03T22:22:34.962Z,2.60
2019-04-03T22:25:03.386Z,3.97
2019-04-03T22:27:31.799Z,3.23
2019-04-03T22:30:00.218Z,3.27
2019-04-03T22:32:28.622Z,2.70
2019-04-03T22:35:00.645Z,2.57
2019-04-03T22:37:27.484Z,2.90
2019-04-03T22:39:55.905Z,2.60
2019-04-03T22:42:24.307Z,3.00
2019-04-03T22:44:53.017Z,3.10
2019-04-03T22:47:23.093Z,3.33
2019-04-03T22:49:51.903Z,2.73
2019-04-03T22:52:20.315Z,3.43
2019-04-03T22:54:48.754Z,3.17
2019-04-03T22:57:19.433Z,3.80
2019-04-03T22:59:47.299Z,3.87
2019-04-03T23:02:15.694Z,4.40
2019-04-03T23:04:46.267Z,4.53
2019-04-03T23:07:14.251Z,5.30
2019-04-03T23:09:42.666Z,5.03
2019-04-03T23:12:11.073Z,5.87
2019-04-03T23:14:39.495Z,5.23
2019-04-03T23:17:07.909Z,4.87
2019-04-03T23:19:36.339Z,4.90
2019-04-03T23:22:04.750Z,4.70
2019-04-03T23:24:33.488Z,5.20
2019-04-03T23:27:02.717Z,6.47
2019-04-03T23:29:31.794Z,6.17
2019-04-03T23:32:00.202Z,6.10
2019-04-03T23:34:28.612Z,6.30
2019-04-03T23:36:57.014Z,6.17
2019-04-03T23:39:27.671Z,7.00
2019-04-03T23:41:55.925Z,6.93
2019-04-03T23:44:24.341Z,7.73
2019-04-03T23:46:52.914Z,7.40
2019-04-03T23:49:21.347Z,6.60
2019-04-03T23:51:49.758Z,6.50
2019-04-03T23:54:18.179Z,6.10
2019-04-03T23:56:46.582Z,6.07
2019-04-03T23:59:14.983Z,6.10
